createdAt,value
2024-02-20T00:06:53.399Z,101489.56
2024-02-20T00:13:55.003Z,101501.59
2024-02-20T00:20:56.442Z,101501.16
2024-02-20T00:27:57.918Z,101502.50
2024-02-20T01:39:09.102Z,101493.38
2024-02-20T01:46:10.700Z,101497.16
2024-02-20T01:53:12.892Z,101488.59
2024-02-20T02:00:14.680Z,101496.47
2024-02-20T02:07:16.317Z,101490.22
2024-02-20T02:14:18.013Z,101498.16
2024-02-20T02:21:19.921Z,101493.09
2024-02-20T02:28:22.114Z,101481.53
2024-02-20T03:41:43.783Z,101523.66
2024-02-20T03:48:45.487Z,101521.91
2024-02-20T03:55:47.150Z,101539.50
2024-02-20T04:02:48.746Z,101547.69
2024-02-20T04:09:50.338Z,101544.69
2024-02-20T04:16:52.896Z,101550.78
2024-02-20T04:23:54.507Z,101553.56
2024-02-20T04:30:56.099Z,101558.25
2024-02-20T05:40:13.822Z,101607.47
2024-02-20T05:47:15.518Z,101625.47
2024-02-20T05:54:17.196Z,101621.84
2024-02-20T06:01:19.240Z,101636.47
2024-02-20T06:08:20.972Z,101649.47
2024-02-20T06:15:25.171Z,101654.34
2024-02-20T06:22:26.840Z,101657.56
2024-02-20T06:29:28.833Z,101662.75
2024-02-20T06:36:30.476Z,101672.34
2024-02-20T06:43:32.199Z,101681.84
2024-02-20T06:50:33.860Z,101687.53
2024-02-20T06:57:36.478Z,101696.22
2024-02-20T07:04:40.301Z,101699.22
2024-02-20T07:11:48.146Z,101699.94
2024-02-20T07:18:49.792Z,101717.59
2024-02-20T07:25:51.450Z,101716.19
2024-02-20T07:32:53.274Z,101724.78
2024-02-20T07:39:55.020Z,101733.50
2024-02-20T07:46:56.578Z,101736.66
2024-02-20T07:53:58.221Z,101735.31
2024-02-20T08:01:00.036Z,101736.16
2024-02-20T08:08:02.025Z,101750.28
2024-02-20T08:15:03.989Z,101750.72
2024-02-20T08:22:05.684Z,101761.16
2024-02-20T08:29:09.437Z,101763.56
2024-02-20T09:42:10.585Z,101830.31
2024-02-20T09:49:12.404Z,101826.25
2024-02-20T09:56:15.422Z,101829.41
2024-02-20T10:03:17.074Z,101830.31
2024-02-20T10:10:18.674Z,101841.88
2024-02-20T10:17:20.651Z,101842.22
2024-02-20T10:24:27.967Z,101845.47
2024-02-20T10:31:36.225Z,101853.38
2024-02-20T10:38:40.787Z,101848.78
2024-02-20T10:45:45.822Z,101841.97
2024-02-20T10:52:47.513Z,101842.88
2024-02-20T10:59:51.080Z,101842.69
2024-02-20T11:06:52.704Z,101839.28
2024-02-20T11:13:57.235Z,101836.22
2024-02-20T11:21:06.852Z,101834.59
2024-02-20T11:28:15.764Z,101836.13
2024-02-20T11:35:29.019Z,101834.59
2024-02-20T11:42:30.673Z,101836.50
2024-02-20T11:49:35.017Z,101841.41
2024-02-20T11:56:37.257Z,101839.06
2024-02-20T12:03:39.351Z,101845.75
2024-02-20T12:10:41.697Z,101834.84
2024-02-20T12:17:47.053Z,101830.41
2024-02-20T12:24:48.953Z,101841.69
2024-02-20T12:31:50.676Z,101846.03
2024-02-20T13:37:40.470Z,101820.84
2024-02-20T13:44:42.126Z,101833.16
2024-02-20T13:51:43.790Z,101836.81
2024-02-20T13:58:45.892Z,101829.44
2024-02-20T14:05:47.759Z,101831.66
2024-02-20T14:12:49.450Z,101829.28
2024-02-20T14:19:51.237Z,101834.28
2024-02-20T14:26:52.999Z,101833.16
2024-02-20T14:33:54.770Z,101830.75
2024-02-20T14:40:56.664Z,101836.09
2024-02-20T14:47:58.419Z,101826.03
2024-02-20T14:55:00.060Z,101833.00
2024-02-20T15:02:01.701Z,101830.53
2024-02-20T15:09:03.515Z,101827.41
2024-02-20T15:16:05.256Z,101829.81
2024-02-20T15:23:06.888Z,101826.69
2024-02-20T15:30:09.249Z,101829.72
2024-02-20T16:41:03.178Z,101844.78
2024-02-20T16:48:05.727Z,101841.47
2024-02-20T16:55:07.735Z,101826.91
2024-02-20T17:02:09.459Z,101836.53
2024-02-20T17:09:11.097Z,101836.94
2024-02-20T17:16:13.934Z,101835.91
2024-02-20T17:23:17.246Z,101834.97
2024-02-20T17:30:19.381Z,101824.00
2024-02-20T17:37:21.005Z,101833.81
2024-02-20T17:44:23.331Z,101835.78
2024-02-20T17:51:27.979Z,101841.28
2024-02-20T17:58:29.676Z,101835.72
2024-02-20T18:05:31.428Z,101835.91
2024-02-20T18:12:33.180Z,101820.75
2024-02-20T18:19:35.355Z,101825.41
2024-02-20T18:26:36.973Z,101817.28
2024-02-20T18:33:38.600Z,101814.56
2024-02-20T18:40:40.426Z,101808.78
2024-02-20T18:47:42.403Z,101805.44
2024-02-20T18:54:44.303Z,101809.84
2024-02-20T19:01:49.665Z,101814.75
2024-02-20T19:08:51.338Z,101800.88
2024-02-20T19:15:52.934Z,101808.47
2024-02-20T19:22:54.619Z,101798.34
2024-02-20T19:29:57.675Z,101792.88
2024-02-20T20:39:27.717Z,101772.63
2024-02-20T20:46:29.628Z,101767.72
2024-02-20T20:53:31.296Z,101764.28
2024-02-20T21:00:37.744Z,101761.25
2024-02-20T21:07:39.496Z,101757.03
2024-02-20T21:14:41.512Z,101753.59
2024-02-20T21:21:44.252Z,101750.34
2024-02-20T21:28:46.743Z,101749.16
2024-02-20T21:35:48.501Z,101741.22
2024-02-20T21:42:50.155Z,101729.91
2024-02-20T21:49:51.771Z,101716.66
2024-02-20T21:56:53.486Z,101722.66
2024-02-20T22:03:55.107Z,101718.94
2024-02-20T22:10:59.435Z,101702.50
2024-02-20T22:18:01.209Z,101696.28
2024-02-20T22:25:02.814Z,101702.91
2024-02-20T23:39:16.380Z,101640.00
2024-02-20T23:46:17.843Z,101617.88
2024-02-20T23:53:19.412Z,101610.13
